sensor_id;sensor_type;location;lat;lon;timestamp;temperature;humidity
43561;DHT22;32305;46.410;17.394;2024-02-26T00:02:17;22.30;37.10
43561;DHT22;32305;46.410;17.394;2024-02-26T00:04:44;22.30;37.10
43561;DHT22;32305;46.410;17.394;2024-02-26T00:07:10;22.30;37.10
43561;DHT22;32305;46.410;17.394;2024-02-26T00:09:37;22.30;37.10
43561;DHT22;32305;46.410;17.394;2024-02-26T00:12:04;22.30;37.20
43561;DHT22;32305;46.410;17.394;2024-02-26T00:14:31;22.30;37.20
43561;DHT22;32305;46.410;17.394;2024-02-26T00:16:59;22.30;37.30
43561;DHT22;32305;46.410;17.394;2024-02-26T00:19:26;22.20;37.30
43561;DHT22;32305;46.410;17.394;2024-02-26T00:21:53;22.20;37.30
43561;DHT22;32305;46.410;17.394;2024-02-26T00:24:21;22.20;37.30
43561;DHT22;32305;46.410;17.394;2024-02-26T00:26:48;22.20;37.30
43561;DHT22;32305;46.410;17.394;2024-02-26T00:29:20;22.30;37.30
43561;DHT22;32305;46.410;17.394;2024-02-26T00:31:47;22.30;37.30
43561;DHT22;32305;46.410;17.394;2024-02-26T00:34:14;22.20;37.20
43561;DHT22;32305;46.410;17.394;2024-02-26T00:36:41;22.30;37.20
43561;DHT22;32305;46.410;17.394;2024-02-26T00:39:08;22.30;37.20
43561;DHT22;32305;46.410;17.394;2024-02-26T00:41:38;22.30;37.20
43561;DHT22;32305;46.410;17.394;2024-02-26T00:44:05;22.30;37.30
43561;DHT22;32305;46.410;17.394;2024-02-26T00:46:32;22.30;37.20
43561;DHT22;32305;46.410;17.394;2024-02-26T00:48:58;22.30;37.20
43561;DHT22;32305;46.410;17.394;2024-02-26T00:51:27;22.30;37.20
43561;DHT22;32305;46.410;17.394;2024-02-26T00:53:54;22.20;37.20
43561;DHT22;32305;46.410;17.394;2024-02-26T00:56:21;22.30;37.20
43561;DHT22;32305;46.410;17.394;2024-02-26T00:58:48;22.30;37.20
43561;DHT22;32305;46.410;17.394;2024-02-26T01:01:15;22.30;37.30
43561;DHT22;32305;46.410;17.394;2024-02-26T01:03:42;22.30;37.30
43561;DHT22;32305;46.410;17.394;2024-02-26T01:06:09;22.30;37.30
43561;DHT22;32305;46.410;17.394;2024-02-26T01:08:36;22.20;37.20
43561;DHT22;32305;46.410;17.394;2024-02-26T01:11:04;22.20;37.20
43561;DHT22;32305;46.410;17.394;2024-02-26T01:13:31;22.20;37.20
43561;DHT22;32305;46.410;17.394;2024-02-26T01:15:58;22.30;37.30
43561;DHT22;32305;46.410;17.394;2024-02-26T01:18:25;22.30;37.30
43561;DHT22;32305;46.410;17.394;2024-02-26T01:20:52;22.20;37.30
43561;DHT22;32305;46.410;17.394;2024-02-26T01:23:21;22.20;37.30
43561;DHT22;32305;46.410;17.394;2024-02-26T01:25:48;22.10;37.30
43561;DHT22;32305;46.410;17.394;2024-02-26T01:28:15;22.20;37.40
43561;DHT22;32305;46.410;17.394;2024-02-26T01:30:42;22.20;37.50
43561;DHT22;32305;46.410;17.394;2024-02-26T01:33:09;22.10;37.40
43561;DHT22;32305;46.410;17.394;2024-02-26T01:35:36;22.20;37.50
43561;DHT22;32305;46.410;17.394;2024-02-26T01:38:03;22.20;37.50
43561;DHT22;32305;46.410;17.394;2024-02-26T01:40:30;22.20;37.40
43561;DHT22;32305;46.410;17.394;2024-02-26T01:42:57;22.20;37.40
43561;DHT22;32305;46.410;17.394;2024-02-26T01:45:25;22.20;37.40
43561;DHT22;32305;46.410;17.394;2024-02-26T01:47:52;22.20;37.40
43561;DHT22;32305;46.410;17.394;2024-02-26T01:50:20;22.20;37.40
43561;DHT22;32305;46.410;17.394;2024-02-26T01:52:49;22.20;37.40
43561;DHT22;32305;46.410;17.394;2024-02-26T01:55:17;22.20;37.40
43561;DHT22;32305;46.410;17.394;2024-02-26T01:57:45;22.20;37.40
43561;DHT22;32305;46.410;17.394;2024-02-26T02:00:12;22.20;37.40
43561;DHT22;32305;46.410;17.394;2024-02-26T02:02:40;22.20;37.40
43561;DHT22;32305;46.410;17.394;2024-02-26T02:05:08;22.20;37.40
43561;DHT22;32305;46.410;17.394;2024-02-26T02:07:36;22.20;37.40
43561;DHT22;32305;46.410;17.394;2024-02-26T02:10:03;22.20;37.40
43561;DHT22;32305;46.410;17.394;2024-02-26T02:12:31;22.20;37.40
43561;DHT22;32305;46.410;17.394;2024-02-26T02:15:00;22.20;37.50
43561;DHT22;32305;46.410;17.394;2024-02-26T02:17:27;22.20;37.40
43561;DHT22;32305;46.410;17.394;2024-02-26T02:19:54;22.20;37.40
43561;DHT22;32305;46.410;17.394;2024-02-26T02:22:21;22.20;37.40
43561;DHT22;32305;46.410;17.394;2024-02-26T02:24:49;22.20;37.40
43561;DHT22;32305;46.410;17.394;2024-02-26T02:27:16;22.10;37.40
43561;DHT22;32305;46.410;17.394;2024-02-26T02:29:43;22.20;37.50
43561;DHT22;32305;46.410;17.394;2024-02-26T02:32:13;22.20;37.50
43561;DHT22;32305;46.410;17.394;2024-02-26T02:34:41;22.10;37.50
43561;DHT22;32305;46.410;17.394;2024-02-26T02:37:08;22.10;37.60
43561;DHT22;32305;46.410;17.394;2024-02-26T02:39:34;22.10;37.60
43561;DHT22;32305;46.410;17.394;2024-02-26T02:42:01;22.10;37.70
43561;DHT22;32305;46.410;17.394;2024-02-26T02:44:28;22.10;37.60
43561;DHT22;32305;46.410;17.394;2024-02-26T02:46:55;22.10;37.60
43561;DHT22;32305;46.410;17.394;2024-02-26T02:49:22;22.10;37.60
43561;DHT22;32305;46.410;17.394;2024-02-26T02:51:50;22.10;37.60
43561;DHT22;32305;46.410;17.394;2024-02-26T02:54:17;22.10;37.60
43561;DHT22;32305;46.410;17.394;2024-02-26T02:56:44;22.10;37.60
43561;DHT22;32305;46.410;17.394;2024-02-26T02:59:11;22.10;37.50
43561;DHT22;32305;46.410;17.394;2024-02-26T03:01:38;22.10;37.60
43561;DHT22;32305;46.410;17.394;2024-02-26T03:04:05;22.10;37.50
43561;DHT22;32305;46.410;17.394;2024-02-26T03:06:32;22.10;37.50
43561;DHT22;32305;46.410;17.394;2024-02-26T03:08:59;22.10;37.60
43561;DHT22;32305;46.410;17.394;2024-02-26T03:11:27;22.10;37.50
43561;DHT22;32305;46.410;17.394;2024-02-26T03:13:54;22.10;37.50
43561;DHT22;32305;46.410;17.394;2024-02-26T03:16:21;22.10;37.60
43561;DHT22;32305;46.410;17.394;2024-02-26T03:18:48;22.10;37.60
43561;DHT22;32305;46.410;17.394;2024-02-26T03:21:17;22.10;37.60
43561;DHT22;32305;46.410;17.394;2024-02-26T03:23:44;22.10;37.60
43561;DHT22;32305;46.410;17.394;2024-02-26T03:26:11;22.10;37.60
43561;DHT22;32305;46.410;17.394;2024-02-26T03:28:41;22.10;37.60
43561;DHT22;32305;46.410;17.394;2024-02-26T03:31:08;22.10;37.60
43561;DHT22;32305;46.410;17.394;2024-02-26T03:33:35;22.10;37.60
43561;DHT22;32305;46.410;17.394;2024-02-26T03:36:02;22.10;37.60
43561;DHT22;32305;46.410;17.394;2024-02-26T03:38:30;22.10;37.70
43561;DHT22;32305;46.410;17.394;2024-02-26T03:40:57;22.00;37.70
43561;DHT22;32305;46.410;17.394;2024-02-26T03:43:23;22.00;37.80
43561;DHT22;32305;46.410;17.394;2024-02-26T03:45:50;22.00;37.80
43561;DHT22;32305;46.410;17.394;2024-02-26T03:48:17;22.00;37.90
43561;DHT22;32305;46.410;17.394;2024-02-26T03:50:44;22.00;37.90
43561;DHT22;32305;46.410;17.394;2024-02-26T03:53:11;22.00;37.90
43561;DHT22;32305;46.410;17.394;2024-02-26T03:55:40;22.00;37.80
43561;DHT22;32305;46.410;17.394;2024-02-26T03:58:08;22.00;37.80
43561;DHT22;32305;46.410;17.394;2024-02-26T04:00:36;22.10;37.80
43561;DHT22;32305;46.410;17.394;2024-02-26T04:03:03;22.10;37.80
43561;DHT22;32305;46.410;17.394;2024-02-26T04:05:30;22.10;37.80
43561;DHT22;32305;46.410;17.394;2024-02-26T04:07:57;22.10;37.80
43561;DHT22;32305;46.410;17.394;2024-02-26T04:10:24;22.10;37.80
43561;DHT22;32305;46.410;17.394;2024-02-26T04:12:51;22.10;37.70
43561;DHT22;32305;46.410;17.394;2024-02-26T04:15:18;22.10;37.80
43561;DHT22;32305;46.410;17.394;2024-02-26T04:17:45;22.10;37.80
43561;DHT22;32305;46.410;17.394;2024-02-26T04:20:13;22.10;37.80
43561;DHT22;32305;46.410;17.394;2024-02-26T04:22:40;22.10;37.80
43561;DHT22;32305;46.410;17.394;2024-02-26T04:25:07;22.10;37.80
43561;DHT22;32305;46.410;17.394;2024-02-26T04:27:34;22.00;37.80
43561;DHT22;32305;46.410;17.394;2024-02-26T04:30:01;22.10;37.80
43561;DHT22;32305;46.410;17.394;2024-02-26T04:32:30;22.10;37.80
43561;DHT22;32305;46.410;17.394;2024-02-26T04:34:57;22.10;37.80
43561;DHT22;32305;46.410;17.394;2024-02-26T04:37:24;22.00;37.80
43561;DHT22;32305;46.410;17.394;2024-02-26T04:39:51;22.00;37.80
43561;DHT22;32305;46.410;17.394;2024-02-26T04:42:18;22.10;37.80
43561;DHT22;32305;46.410;17.394;2024-02-26T04:44:45;22.00;37.70
43561;DHT22;32305;46.410;17.394;2024-02-26T04:47:12;22.10;37.70
43561;DHT22;32305;46.410;17.394;2024-02-26T04:49:39;22.00;37.70
43561;DHT22;32305;46.410;17.394;2024-02-26T04:52:06;22.10;37.70
43561;DHT22;32305;46.410;17.394;2024-02-26T04:54:33;22.10;37.70
43561;DHT22;32305;46.410;17.394;2024-02-26T04:57:00;22.10;37.70
43561;DHT22;32305;46.410;17.394;2024-02-26T04:59:27;22.00;37.70
43561;DHT22;32305;46.410;17.394;2024-02-26T05:01:54;22.00;37.80
43561;DHT22;32305;46.410;17.394;2024-02-26T05:04:21;22.00;37.80
43561;DHT22;32305;46.410;17.394;2024-02-26T05:06:48;22.00;37.70
43561;DHT22;32305;46.410;17.394;2024-02-26T05:09:15;22.00;37.70
43561;DHT22;32305;46.410;17.394;2024-02-26T05:11:43;22.00;37.60
43561;DHT22;32305;46.410;17.394;2024-02-26T05:14:10;22.00;37.60
43561;DHT22;32305;46.410;17.394;2024-02-26T05:16:37;22.00;37.60
43561;DHT22;32305;46.410;17.394;2024-02-26T05:19:04;22.00;37.60
43561;DHT22;32305;46.410;17.394;2024-02-26T05:21:32;22.00;37.60
43561;DHT22;32305;46.410;17.394;2024-02-26T05:24:00;22.10;37.70
43561;DHT22;32305;46.410;17.394;2024-02-26T05:26:27;22.10;37.70
43561;DHT22;32305;46.410;17.394;2024-02-26T05:28:54;22.10;37.70
43561;DHT22;32305;46.410;17.394;2024-02-26T05:31:26;22.10;37.60
43561;DHT22;32305;46.410;17.394;2024-02-26T05:33:53;22.10;37.70
43561;DHT22;32305;46.410;17.394;2024-02-26T05:36:21;22.00;37.60
43561;DHT22;32305;46.410;17.394;2024-02-26T05:38:49;22.00;37.60
43561;DHT22;32305;46.410;17.394;2024-02-26T05:41:16;22.10;37.70
43561;DHT22;32305;46.410;17.394;2024-02-26T05:43:43;22.10;37.70
43561;DHT22;32305;46.410;17.394;2024-02-26T05:46:10;22.00;37.60
43561;DHT22;32305;46.410;17.394;2024-02-26T05:48:37;22.10;37.70
43561;DHT22;32305;46.410;17.394;2024-02-26T05:51:04;22.00;37.60
43561;DHT22;32305;46.410;17.394;2024-02-26T05:53:31;22.10;37.70
43561;DHT22;32305;46.410;17.394;2024-02-26T05:55:58;22.00;37.60
43561;DHT22;32305;46.410;17.394;2024-02-26T05:58:25;22.00;37.60
43561;DHT22;32305;46.410;17.394;2024-02-26T06:00:51;22.10;37.70
43561;DHT22;32305;46.410;17.394;2024-02-26T06:03:19;22.10;37.70
43561;DHT22;32305;46.410;17.394;2024-02-26T06:05:46;22.00;37.70
43561;DHT22;32305;46.410;17.394;2024-02-26T06:08:13;22.00;37.70
43561;DHT22;32305;46.410;17.394;2024-02-26T06:10:40;22.10;37.80
43561;DHT22;32305;46.410;17.394;2024-02-26T06:13:07;22.10;37.80
43561;DHT22;32305;46.410;17.394;2024-02-26T06:15:34;22.10;37.80
43561;DHT22;32305;46.410;17.394;2024-02-26T06:18:01;22.10;37.80
43561;DHT22;32305;46.410;17.394;2024-02-26T06:20:28;22.10;37.70
43561;DHT22;32305;46.410;17.394;2024-02-26T06:22:55;22.10;37.70
43561;DHT22;32305;46.410;17.394;2024-02-26T06:25:22;22.10;37.70
43561;DHT22;32305;46.410;17.394;2024-02-26T06:27:49;22.20;37.80
43561;DHT22;32305;46.410;17.394;2024-02-26T06:30:16;22.20;37.80
43561;DHT22;32305;46.410;17.394;2024-02-26T06:32:43;22.20;38.10
43561;DHT22;32305;46.410;17.394;2024-02-26T06:35:10;22.30;38.40
43561;DHT22;32305;46.410;17.394;2024-02-26T06:37:38;22.30;38.70
43561;DHT22;32305;46.410;17.394;2024-02-26T06:40:05;22.30;38.90
43561;DHT22;32305;46.410;17.394;2024-02-26T06:42:36;22.40;38.80
43561;DHT22;32305;46.410;17.394;2024-02-26T06:45:04;22.50;38.90
43561;DHT22;32305;46.410;17.394;2024-02-26T06:47:31;22.50;39.40
43561;DHT22;32305;46.410;17.394;2024-02-26T06:49:58;22.60;38.80
43561;DHT22;32305;46.410;17.394;2024-02-26T06:52:25;22.70;38.30
43561;DHT22;32305;46.410;17.394;2024-02-26T06:54:52;22.70;37.90
43561;DHT22;32305;46.410;17.394;2024-02-26T06:57:20;22.80;37.70
43561;DHT22;32305;46.410;17.394;2024-02-26T06:59:47;22.90;37.60
43561;DHT22;32305;46.410;17.394;2024-02-26T07:02:16;23.00;37.50
43561;DHT22;32305;46.410;17.394;2024-02-26T07:04:43;23.10;37.50
43561;DHT22;32305;46.410;17.394;2024-02-26T07:07:10;23.10;37.30
43561;DHT22;32305;46.410;17.394;2024-02-26T07:09:37;23.20;37.20
43561;DHT22;32305;46.410;17.394;2024-02-26T07:12:04;23.30;37.20
43561;DHT22;32305;46.410;17.394;2024-02-26T07:14:31;23.40;37.10
43561;DHT22;32305;46.410;17.394;2024-02-26T07:16:59;23.40;37.10
43561;DHT22;32305;46.410;17.394;2024-02-26T07:19:26;23.50;37.10
43561;DHT22;32305;46.410;17.394;2024-02-26T07:21:53;23.60;37.00
43561;DHT22;32305;46.410;17.394;2024-02-26T07:24:20;23.70;36.90
43561;DHT22;32305;46.410;17.394;2024-02-26T07:26:47;23.70;37.30
43561;DHT22;32305;46.410;17.394;2024-02-26T07:29:14;23.80;37.60
43561;DHT22;32305;46.410;17.394;2024-02-26T07:31:42;23.90;37.50
43561;DHT22;32305;46.410;17.394;2024-02-26T07:34:09;23.90;37.40
43561;DHT22;32305;46.410;17.394;2024-02-26T07:36:36;24.10;37.50
43561;DHT22;32305;46.410;17.394;2024-02-26T07:39:03;24.10;38.00
43561;DHT22;32305;46.410;17.394;2024-02-26T07:41:30;24.20;37.30
43561;DHT22;32305;46.410;17.394;2024-02-26T07:43:57;24.30;37.00
43561;DHT22;32305;46.410;17.394;2024-02-26T07:46:24;24.30;37.20
43561;DHT22;32305;46.410;17.394;2024-02-26T07:48:51;24.40;36.50
43561;DHT22;32305;46.410;17.394;2024-02-26T07:51:18;24.40;36.40
43561;DHT22;32305;46.410;17.394;2024-02-26T07:53:46;24.50;36.60
43561;DHT22;32305;46.410;17.394;2024-02-26T07:56:13;24.50;36.80
43561;DHT22;32305;46.410;17.394;2024-02-26T07:58:40;24.60;36.70
43561;DHT22;32305;46.410;17.394;2024-02-26T08:01:07;24.60;36.90
43561;DHT22;32305;46.410;17.394;2024-02-26T08:03:34;24.70;36.80
43561;DHT22;32305;46.410;17.394;2024-02-26T08:06:01;24.70;36.80
43561;DHT22;32305;46.410;17.394;2024-02-26T08:08:28;24.80;36.30
43561;DHT22;32305;46.410;17.394;2024-02-26T08:10:55;24.80;36.20
43561;DHT22;32305;46.410;17.394;2024-02-26T08:13:22;24.80;36.00
43561;DHT22;32305;46.410;17.394;2024-02-26T08:15:49;24.90;36.00
43561;DHT22;32305;46.410;17.394;2024-02-26T08:18:16;24.90;36.00
43561;DHT22;32305;46.410;17.394;2024-02-26T08:20:47;24.90;35.90
43561;DHT22;32305;46.410;17.394;2024-02-26T08:23:15;24.90;35.90
43561;DHT22;32305;46.410;17.394;2024-02-26T08:25:42;25.00;36.00
43561;DHT22;32305;46.410;17.394;2024-02-26T08:28:09;25.00;36.00
43561;DHT22;32305;46.410;17.394;2024-02-26T08:30:40;25.10;36.00
43561;DHT22;32305;46.410;17.394;2024-02-26T08:33:06;25.10;36.10
43561;DHT22;32305;46.410;17.394;2024-02-26T08:35:33;25.10;36.00
43561;DHT22;32305;46.410;17.394;2024-02-26T08:38:00;25.10;36.00
43561;DHT22;32305;46.410;17.394;2024-02-26T08:40:27;25.10;36.00
43561;DHT22;32305;46.410;17.394;2024-02-26T08:42:55;25.10;36.00
43561;DHT22;32305;46.410;17.394;2024-02-26T08:45:22;25.20;36.00
43561;DHT22;32305;46.410;17.394;2024-02-26T08:47:52;25.20;36.00
43561;DHT22;32305;46.410;17.394;2024-02-26T08:50:19;25.20;36.00
43561;DHT22;32305;46.410;17.394;2024-02-26T08:52:46;25.20;35.90
43561;DHT22;32305;46.410;17.394;2024-02-26T08:55:17;25.20;35.90
43561;DHT22;32305;46.410;17.394;2024-02-26T08:57:44;25.20;35.90
43561;DHT22;32305;46.410;17.394;2024-02-26T09:00:11;25.30;35.90
43561;DHT22;32305;46.410;17.394;2024-02-26T09:02:39;25.30;36.00
43561;DHT22;32305;46.410;17.394;2024-02-26T09:05:06;25.30;35.90
43561;DHT22;32305;46.410;17.394;2024-02-26T09:07:33;25.30;35.90
43561;DHT22;32305;46.410;17.394;2024-02-26T09:10:00;25.40;35.90
43561;DHT22;32305;46.410;17.394;2024-02-26T09:12:27;25.40;35.80
43561;DHT22;32305;46.410;17.394;2024-02-26T09:14:54;25.40;35.90
43561;DHT22;32305;46.410;17.394;2024-02-26T09:17:23;25.40;35.80
43561;DHT22;32305;46.410;17.394;2024-02-26T09:19:50;25.40;35.80
43561;DHT22;32305;46.410;17.394;2024-02-26T09:22:17;25.40;35.80
43561;DHT22;32305;46.410;17.394;2024-02-26T09:24:44;25.50;35.80
43561;DHT22;32305;46.410;17.394;2024-02-26T09:27:11;25.50;35.70
43561;DHT22;32305;46.410;17.394;2024-02-26T09:29:38;25.50;35.70
43561;DHT22;32305;46.410;17.394;2024-02-26T09:32:05;25.60;35.80
43561;DHT22;32305;46.410;17.394;2024-02-26T09:34:32;25.60;35.70
43561;DHT22;32305;46.410;17.394;2024-02-26T09:37:01;25.60;35.60
43561;DHT22;32305;46.410;17.394;2024-02-26T09:39:41;25.60;35.50
43561;DHT22;32305;46.410;17.394;2024-02-26T09:42:08;25.70;35.60
43561;DHT22;32305;46.410;17.394;2024-02-26T09:44:39;25.70;35.70
43561;DHT22;32305;46.410;17.394;2024-02-26T09:47:08;25.70;35.60
43561;DHT22;32305;46.410;17.394;2024-02-26T09:49:36;25.70;35.60
43561;DHT22;32305;46.410;17.394;2024-02-26T09:52:04;25.70;35.60
43561;DHT22;32305;46.410;17.394;2024-02-26T09:54:31;25.80;35.60
43561;DHT22;32305;46.410;17.394;2024-02-26T09:56:59;25.80;35.60
43561;DHT22;32305;46.410;17.394;2024-02-26T09:59:33;25.80;35.40
43561;DHT22;32305;46.410;17.394;2024-02-26T10:02:09;25.80;35.30
43561;DHT22;32305;46.410;17.394;2024-02-26T10:04:38;25.80;35.10
43561;DHT22;32305;46.410;17.394;2024-02-26T10:07:09;25.90;35.10
43561;DHT22;32305;46.410;17.394;2024-02-26T10:09:37;25.90;35.00
43561;DHT22;32305;46.410;17.394;2024-02-26T10:12:04;25.90;35.00
43561;DHT22;32305;46.410;17.394;2024-02-26T10:14:31;25.90;34.90
43561;DHT22;32305;46.410;17.394;2024-02-26T10:16:58;25.90;34.70
43561;DHT22;32305;46.410;17.394;2024-02-26T10:19:28;25.90;34.70
43561;DHT22;32305;46.410;17.394;2024-02-26T10:21:56;25.90;34.60
43561;DHT22;32305;46.410;17.394;2024-02-26T10:24:24;25.90;34.60
43561;DHT22;32305;46.410;17.394;2024-02-26T10:26:52;25.90;34.70
43561;DHT22;32305;46.410;17.394;2024-02-26T10:29:20;26.00;34.50
43561;DHT22;32305;46.410;17.394;2024-02-26T10:31:47;26.00;34.40
43561;DHT22;32305;46.410;17.394;2024-02-26T10:34:14;26.00;34.40
43561;DHT22;32305;46.410;17.394;2024-02-26T10:36:42;26.10;34.40
43561;DHT22;32305;46.410;17.394;2024-02-26T10:39:19;26.10;34.20
43561;DHT22;32305;46.410;17.394;2024-02-26T10:41:46;26.10;34.10
43561;DHT22;32305;46.410;17.394;2024-02-26T10:44:13;26.10;34.10
43561;DHT22;32305;46.410;17.394;2024-02-26T10:46:46;26.10;33.90
43561;DHT22;32305;46.410;17.394;2024-02-26T10:49:14;26.10;33.90
43561;DHT22;32305;46.410;17.394;2024-02-26T10:51:45;26.10;33.90
43561;DHT22;32305;46.410;17.394;2024-02-26T10:54:16;26.20;34.00
43561;DHT22;32305;46.410;17.394;2024-02-26T10:56:43;26.20;34.00
43561;DHT22;32305;46.410;17.394;2024-02-26T10:59:11;26.20;33.90
43561;DHT22;32305;46.410;17.394;2024-02-26T11:01:39;26.20;33.80
43561;DHT22;32305;46.410;17.394;2024-02-26T11:04:08;26.30;33.80
43561;DHT22;32305;46.410;17.394;2024-02-26T11:06:36;26.30;33.60
43561;DHT22;32305;46.410;17.394;2024-02-26T11:09:03;26.30;33.70
43561;DHT22;32305;46.410;17.394;2024-02-26T11:11:31;26.30;33.70
43561;DHT22;32305;46.410;17.394;2024-02-26T11:14:01;26.40;33.70
43561;DHT22;32305;46.410;17.394;2024-02-26T11:16:29;26.40;33.70
43561;DHT22;32305;46.410;17.394;2024-02-26T11:18:56;26.40;33.80
43561;DHT22;32305;46.410;17.394;2024-02-26T11:21:24;26.40;33.60
43561;DHT22;32305;46.410;17.394;2024-02-26T11:24:06;26.50;33.50
43561;DHT22;32305;46.410;17.394;2024-02-26T11:26:35;26.50;33.50
43561;DHT22;32305;46.410;17.394;2024-02-26T11:29:03;26.60;33.30
43561;DHT22;32305;46.410;17.394;2024-02-26T11:31:31;26.60;33.10
43561;DHT22;32305;46.410;17.394;2024-02-26T11:34:02;26.60;32.90
43561;DHT22;32305;46.410;17.394;2024-02-26T11:36:29;26.70;32.90
43561;DHT22;32305;46.410;17.394;2024-02-26T11:38:57;26.70;32.90
43561;DHT22;32305;46.410;17.394;2024-02-26T11:41:24;26.80;32.90
43561;DHT22;32305;46.410;17.394;2024-02-26T11:43:52;26.70;32.80
43561;DHT22;32305;46.410;17.394;2024-02-26T11:46:26;26.80;32.70
43561;DHT22;32305;46.410;17.394;2024-02-26T11:48:55;26.80;32.60
43561;DHT22;32305;46.410;17.394;2024-02-26T11:51:26;26.80;32.50
43561;DHT22;32305;46.410;17.394;2024-02-26T11:53:54;26.80;32.60
43561;DHT22;32305;46.410;17.394;2024-02-26T11:56:24;26.80;32.60
43561;DHT22;32305;46.410;17.394;2024-02-26T11:59:10;26.80;32.50
43561;DHT22;32305;46.410;17.394;2024-02-26T12:01:38;26.80;32.50
43561;DHT22;32305;46.410;17.394;2024-02-26T12:04:07;26.80;32.50
43561;DHT22;32305;46.410;17.394;2024-02-26T12:06:41;26.80;32.50
43561;DHT22;32305;46.410;17.394;2024-02-26T12:09:08;26.70;32.50
43561;DHT22;32305;46.410;17.394;2024-02-26T12:11:38;26.70;32.50
43561;DHT22;32305;46.410;17.394;2024-02-26T12:14:09;26.70;32.60
43561;DHT22;32305;46.410;17.394;2024-02-26T12:16:39;26.70;32.60
43561;DHT22;32305;46.410;17.394;2024-02-26T12:19:07;26.70;32.60
43561;DHT22;32305;46.410;17.394;2024-02-26T12:21:36;26.70;32.60
43561;DHT22;32305;46.410;17.394;2024-02-26T12:24:13;26.60;32.60
43561;DHT22;32305;46.410;17.394;2024-02-26T12:26:41;26.60;32.70
43561;DHT22;32305;46.410;17.394;2024-02-26T12:29:08;26.60;32.70
43561;DHT22;32305;46.410;17.394;2024-02-26T12:31:35;26.60;32.80
43561;DHT22;32305;46.410;17.394;2024-02-26T12:34:04;26.60;32.80
43561;DHT22;32305;46.410;17.394;2024-02-26T12:36:31;26.60;32.80
43561;DHT22;32305;46.410;17.394;2024-02-26T12:38:59;26.60;32.80
43561;DHT22;32305;46.410;17.394;2024-02-26T12:41:27;26.50;32.90
43561;DHT22;32305;46.410;17.394;2024-02-26T12:43:55;26.50;32.90
43561;DHT22;32305;46.410;17.394;2024-02-26T12:46:23;26.50;33.00
43561;DHT22;32305;46.410;17.394;2024-02-26T12:48:49;26.50;33.00
43561;DHT22;32305;46.410;17.394;2024-02-26T12:51:17;26.50;33.20
43561;DHT22;32305;46.410;17.394;2024-02-26T12:53:44;26.50;33.20
43561;DHT22;32305;46.410;17.394;2024-02-26T12:56:11;26.50;33.20
43561;DHT22;32305;46.410;17.394;2024-02-26T12:58:39;26.50;33.00
43561;DHT22;32305;46.410;17.394;2024-02-26T13:01:06;26.50;32.90
43561;DHT22;32305;46.410;17.394;2024-02-26T13:03:34;26.50;32.80
43561;DHT22;32305;46.410;17.394;2024-02-26T13:06:02;26.50;32.80
43561;DHT22;32305;46.410;17.394;2024-02-26T13:08:31;26.50;32.80
43561;DHT22;32305;46.410;17.394;2024-02-26T13:10:58;26.50;32.80
43561;DHT22;32305;46.410;17.394;2024-02-26T13:13:26;26.40;32.80
43561;DHT22;32305;46.410;17.394;2024-02-26T13:16:01;26.40;32.80
43561;DHT22;32305;46.410;17.394;2024-02-26T13:18:28;26.40;32.90
43561;DHT22;32305;46.410;17.394;2024-02-26T13:21:12;26.40;33.00
43561;DHT22;32305;46.410;17.394;2024-02-26T13:23:39;26.40;32.80
43561;DHT22;32305;46.410;17.394;2024-02-26T13:26:07;26.40;32.90
43561;DHT22;32305;46.410;17.394;2024-02-26T13:28:34;26.30;32.80
43561;DHT22;32305;46.410;17.394;2024-02-26T13:31:01;26.30;32.90
43561;DHT22;32305;46.410;17.394;2024-02-26T13:33:30;26.30;32.90
43561;DHT22;32305;46.410;17.394;2024-02-26T13:35:57;26.30;32.90
43561;DHT22;32305;46.410;17.394;2024-02-26T13:38:25;26.30;33.00
43561;DHT22;32305;46.410;17.394;2024-02-26T13:40:52;26.40;33.00
43561;DHT22;32305;46.410;17.394;2024-02-26T13:43:19;26.30;32.90
43561;DHT22;32305;46.410;17.394;2024-02-26T13:45:46;26.30;32.90
43561;DHT22;32305;46.410;17.394;2024-02-26T13:48:14;26.30;32.90
43561;DHT22;32305;46.410;17.394;2024-02-26T13:50:42;26.30;32.90
43561;DHT22;32305;46.410;17.394;2024-02-26T13:53:13;26.40;32.90
43561;DHT22;32305;46.410;17.394;2024-02-26T13:55:41;26.30;32.90
43561;DHT22;32305;46.410;17.394;2024-02-26T13:58:13;26.30;33.00
43561;DHT22;32305;46.410;17.394;2024-02-26T14:00:41;26.30;33.00
43561;DHT22;32305;46.410;17.394;2024-02-26T14:03:10;26.30;33.00
43561;DHT22;32305;46.410;17.394;2024-02-26T14:05:37;26.30;33.10
43561;DHT22;32305;46.410;17.394;2024-02-26T14:08:04;26.30;33.10
43561;DHT22;32305;46.410;17.394;2024-02-26T14:10:32;26.30;33.20
43561;DHT22;32305;46.410;17.394;2024-02-26T14:12:59;26.30;33.20
43561;DHT22;32305;46.410;17.394;2024-02-26T14:15:27;26.20;33.80
43561;DHT22;32305;46.410;17.394;2024-02-26T14:17:56;26.20;33.30
43561;DHT22;32305;46.410;17.394;2024-02-26T14:20:24;26.20;33.30
43561;DHT22;32305;46.410;17.394;2024-02-26T14:22:51;26.20;33.30
43561;DHT22;32305;46.410;17.394;2024-02-26T14:25:21;26.10;33.20
43561;DHT22;32305;46.410;17.394;2024-02-26T14:27:48;26.10;33.20
43561;DHT22;32305;46.410;17.394;2024-02-26T14:30:15;26.10;33.30
43561;DHT22;32305;46.410;17.394;2024-02-26T14:32:42;26.10;33.30
43561;DHT22;32305;46.410;17.394;2024-02-26T14:35:11;26.10;33.30
43561;DHT22;32305;46.410;17.394;2024-02-26T14:37:43;26.10;33.30
43561;DHT22;32305;46.410;17.394;2024-02-26T14:40:14;26.10;33.40
43561;DHT22;32305;46.410;17.394;2024-02-26T14:42:41;26.10;33.40
43561;DHT22;32305;46.410;17.394;2024-02-26T14:45:08;26.10;33.40
43561;DHT22;32305;46.410;17.394;2024-02-26T14:47:36;26.00;33.50
43561;DHT22;32305;46.410;17.394;2024-02-26T14:50:04;26.00;33.60
43561;DHT22;32305;46.410;17.394;2024-02-26T14:52:31;25.90;33.70
43561;DHT22;32305;46.410;17.394;2024-02-26T14:54:58;25.90;33.80
43561;DHT22;32305;46.410;17.394;2024-02-26T14:57:25;25.90;33.90
43561;DHT22;32305;46.410;17.394;2024-02-26T14:59:52;25.80;33.90
43561;DHT22;32305;46.410;17.394;2024-02-26T15:02:19;25.80;34.00
43561;DHT22;32305;46.410;17.394;2024-02-26T15:04:46;25.80;34.10
43561;DHT22;32305;46.410;17.394;2024-02-26T15:07:17;25.80;34.10
43561;DHT22;32305;46.410;17.394;2024-02-26T15:09:47;25.80;34.20
43561;DHT22;32305;46.410;17.394;2024-02-26T15:12:14;25.80;34.90
43561;DHT22;32305;46.410;17.394;2024-02-26T15:14:42;25.70;34.30
43561;DHT22;32305;46.410;17.394;2024-02-26T15:17:09;25.70;34.40
43561;DHT22;32305;46.410;17.394;2024-02-26T15:19:37;25.70;34.50